createdAt,value
2022-10-15T00:01:06.732Z,13.90
2022-10-15T00:03:37.632Z,13.90
2022-10-15T00:06:07.192Z,13.90
2022-10-15T00:08:35.192Z,13.90
2022-10-15T00:11:08.491Z,13.90
2022-10-15T00:13:38.306Z,13.90
2022-10-15T00:16:09.222Z,13.80
2022-10-15T00:18:37.382Z,13.80
2022-10-15T00:21:08.826Z,13.80
2022-10-15T00:23:37.282Z,13.90
2022-10-15T00:26:07.644Z,13.80
2022-10-15T00:28:37.505Z,13.80
2022-10-15T00:31:07.298Z,13.90
2022-10-15T00:33:35.742Z,13.80
2022-10-15T00:36:06.006Z,13.80
2022-10-15T00:38:34.373Z,13.80
2022-10-15T00:41:04.120Z,13.90
2022-10-15T00:43:46.308Z,13.80
2022-10-15T00:46:19.324Z,13.80
2022-10-15T00:48:51.072Z,13.90
2022-10-15T00:51:20.596Z,13.90
2022-10-15T00:53:50.356Z,13.90
2022-10-15T00:56:21.784Z,13.90
2022-10-15T00:58:55.215Z,13.90
2022-10-15T01:01:27.196Z,13.90
2022-10-15T01:03:56.558Z,13.90
2022-10-15T01:06:27.140Z,13.90
2022-10-15T01:08:55.411Z,13.90
2022-10-15T01:11:38.275Z,14.00
2022-10-15T01:14:23.728Z,14.00
2022-10-15T01:17:01.256Z,14.00
2022-10-15T01:20:02.619Z,14.00
2022-10-15T01:22:41.558Z,14.00
2022-10-15T01:25:26.140Z,14.00
2022-10-15T01:27:57.759Z,14.00
2022-10-15T01:30:32.456Z,14.00
2022-10-15T01:33:28.487Z,14.00
2022-10-15T01:36:06.350Z,13.90
2022-10-15T01:38:46.684Z,14.00
2022-10-15T01:41:20.464Z,13.90
2022-10-15T01:44:00.218Z,14.00
2022-10-15T01:46:40.532Z,14.00
2022-10-15T01:49:12.933Z,14.00
2022-10-15T01:51:43.914Z,14.00
2022-10-15T01:54:17.725Z,14.00
2022-10-15T01:56:49.818Z,14.00
2022-10-15T01:59:23.531Z,14.00
2022-10-15T02:01:54.017Z,14.00
2022-10-15T02:04:26.542Z,14.00
2022-10-15T02:06:59.165Z,14.00
2022-10-15T02:09:42.405Z,14.00
2022-10-15T02:12:26.188Z,14.00
2022-10-15T02:14:58.953Z,14.10
2022-10-15T02:17:35.402Z,14.10
2022-10-15T02:20:07.940Z,14.10
2022-10-15T02:22:42.870Z,14.00
2022-10-15T02:25:15.773Z,14.00
2022-10-15T02:27:48.313Z,14.00
2022-10-15T02:30:17.236Z,14.00
2022-10-15T02:32:51.326Z,14.00
2022-10-15T02:35:23.466Z,13.90
2022-10-15T02:37:54.786Z,13.90
2022-10-15T02:40:27.247Z,13.90
2022-10-15T02:42:56.213Z,13.90
2022-10-15T02:45:24.326Z,13.90
2022-10-15T02:47:53.514Z,13.90
2022-10-15T02:50:21.384Z,13.90
2022-10-15T02:52:49.245Z,13.90
2022-10-15T02:55:18.172Z,13.90
2022-10-15T02:57:46.051Z,13.90
2022-10-15T03:00:14.842Z,13.90
2022-10-15T03:02:42.823Z,13.90
2022-10-15T03:05:12.370Z,13.90
2022-10-15T03:07:40.270Z,13.90
2022-10-15T03:10:09.118Z,13.90
2022-10-15T03:12:37.250Z,13.90
2022-10-15T03:15:07.934Z,13.90
2022-10-15T03:17:36.946Z,13.90
2022-10-15T03:20:05.703Z,13.90
2022-10-15T03:22:39.473Z,13.80
2022-10-15T03:25:07.891Z,13.80
2022-10-15T03:27:35.803Z,13.80
2022-10-15T03:30:08.746Z,13.80
2022-10-15T03:32:36.989Z,13.80
2022-10-15T03:35:07.738Z,13.80
2022-10-15T03:37:38.124Z,13.80
2022-10-15T03:40:13.524Z,13.80
2022-10-15T03:42:42.444Z,13.80
2022-10-15T03:45:12.144Z,13.80
2022-10-15T03:47:40.040Z,13.80
2022-10-15T03:50:09.323Z,13.80
2022-10-15T03:52:39.147Z,13.80
2022-10-15T03:55:08.966Z,13.80
2022-10-15T03:57:37.868Z,13.80
2022-10-15T04:00:08.969Z,13.80
2022-10-15T04:02:42.689Z,13.80
2022-10-15T04:05:22.763Z,13.80
2022-10-15T04:07:58.106Z,13.80
2022-10-15T04:10:27.525Z,13.80
2022-10-15T04:12:55.396Z,13.80
2022-10-15T04:15:23.341Z,13.80
2022-10-15T04:17:56.669Z,13.90
2022-10-15T04:20:27.396Z,13.90
2022-10-15T04:22:57.581Z,13.90
2022-10-15T04:25:26.077Z,13.90
2022-10-15T04:27:54.320Z,13.90
2022-10-15T04:30:22.325Z,13.90
2022-10-15T04:32:56.063Z,13.90
2022-10-15T04:35:24.173Z,13.90
2022-10-15T04:38:00.976Z,13.90
2022-10-15T04:40:46.721Z,13.90
2022-10-15T04:43:14.950Z,13.90
2022-10-15T04:45:43.034Z,13.90
2022-10-15T04:48:10.882Z,13.90
2022-10-15T04:50:39.035Z,13.90
2022-10-15T04:53:21.566Z,13.90
2022-10-15T04:55:52.989Z,13.90
2022-10-15T04:58:21.845Z,13.90
2022-10-15T05:00:50.135Z,13.90
2022-10-15T05:03:31.152Z,13.90
2022-10-15T05:06:05.585Z,13.90
2022-10-15T05:08:36.669Z,13.90
2022-10-15T05:11:14.459Z,13.90
2022-10-15T05:13:43.349Z,13.90
2022-10-15T05:16:13.445Z,13.90
2022-10-15T05:18:42.810Z,13.90
2022-10-15T05:21:11.586Z,13.90
2022-10-15T05:23:42.905Z,13.90
2022-10-15T05:26:22.122Z,13.90
2022-10-15T05:28:50.827Z,13.90
2022-10-15T05:31:28.653Z,13.90
2022-10-15T05:34:13.943Z,14.00
2022-10-15T05:36:47.733Z,14.00
2022-10-15T05:39:18.519Z,14.00
2022-10-15T05:41:46.996Z,14.00
2022-10-15T05:44:15.412Z,14.00
2022-10-15T05:46:43.473Z,14.00
2022-10-15T05:49:16.772Z,14.00
2022-10-15T05:51:51.433Z,14.00
2022-10-15T05:54:35.723Z,14.00
2022-10-15T05:57:03.531Z,14.00
2022-10-15T05:59:31.425Z,13.90
2022-10-15T06:01:59.373Z,13.90
2022-10-15T06:04:29.515Z,13.90
2022-10-15T06:06:59.724Z,13.90
2022-10-15T06:09:28.782Z,13.90
2022-10-15T06:11:57.971Z,14.00
2022-10-15T06:14:26.802Z,14.00
2022-10-15T06:16:54.993Z,13.90
2022-10-15T06:19:22.855Z,14.00
2022-10-15T06:21:50.748Z,14.00
2022-10-15T06:24:18.597Z,14.00
2022-10-15T06:26:46.401Z,14.00
2022-10-15T06:29:15.636Z,14.00
2022-10-15T06:31:43.491Z,14.00
2022-10-15T06:34:11.376Z,14.10
2022-10-15T06:36:39.460Z,14.10
2022-10-15T06:39:07.310Z,14.10
2022-10-15T06:41:35.179Z,14.20
2022-10-15T06:44:03.051Z,14.20
2022-10-15T06:46:32.196Z,14.20
2022-10-15T06:49:00.022Z,14.20
2022-10-15T06:51:27.858Z,14.30
2022-10-15T06:53:55.748Z,14.30
2022-10-15T06:56:23.577Z,14.30
2022-10-15T06:58:51.509Z,14.40
2022-10-15T07:01:19.338Z,14.40
2022-10-15T07:03:51.383Z,14.40
2022-10-15T07:06:19.728Z,14.40
2022-10-15T07:08:47.612Z,14.50
2022-10-15T07:11:15.519Z,14.50
2022-10-15T07:13:44.230Z,14.50
2022-10-15T07:16:13.557Z,14.50
2022-10-15T07:18:41.548Z,14.50
2022-10-15T07:23:44.172Z,14.60
2022-10-15T07:26:12.467Z,14.60
2022-10-15T07:28:41.183Z,14.60
2022-10-15T07:31:09.086Z,14.60
2022-10-15T07:33:37.291Z,14.70
2022-10-15T07:36:06.440Z,14.70
2022-10-15T07:38:36.341Z,14.70
2022-10-15T07:41:05.593Z,14.70
2022-10-15T07:43:41.482Z,14.70
2022-10-15T07:46:09.363Z,14.70
2022-10-15T07:48:37.249Z,14.80
2022-10-15T07:51:07.707Z,14.80
2022-10-15T07:53:38.145Z,14.80
2022-10-15T07:56:08.972Z,14.80
2022-10-15T07:58:38.148Z,14.80
2022-10-15T08:01:07.484Z,14.80
2022-10-15T08:03:35.814Z,14.90
2022-10-15T08:06:05.011Z,14.90
2022-10-15T08:08:34.293Z,14.90
2022-10-15T08:11:07.261Z,14.90
2022-10-15T08:13:35.330Z,14.90
2022-10-15T08:16:03.264Z,14.90
2022-10-15T08:18:31.109Z,15.00
2022-10-15T08:21:01.163Z,15.00
2022-10-15T08:23:29.562Z,15.00
2022-10-15T08:25:59.206Z,15.00
2022-10-15T08:28:28.620Z,15.10
2022-10-15T08:31:02.610Z,15.10
2022-10-15T08:33:33.362Z,15.10
2022-10-15T08:36:01.226Z,15.00
2022-10-15T08:38:30.827Z,15.10
2022-10-15T08:41:01.304Z,15.10
2022-10-15T08:43:36.468Z,15.10
2022-10-15T08:46:10.856Z,15.20
2022-10-15T08:48:43.058Z,15.20
2022-10-15T08:51:14.727Z,15.30
2022-10-15T08:53:49.574Z,15.30
2022-10-15T08:56:21.694Z,15.30
2022-10-15T08:59:01.532Z,15.30
2022-10-15T09:01:34.552Z,15.30
2022-10-15T09:04:15.679Z,15.40
2022-10-15T09:06:43.985Z,15.40
2022-10-15T09:09:20.719Z,15.50
2022-10-15T09:11:59.699Z,15.50
2022-10-15T09:14:36.666Z,15.50
2022-10-15T09:17:13.925Z,15.50
2022-10-15T09:19:45.401Z,15.50
2022-10-15T09:22:18.291Z,15.50
2022-10-15T09:24:46.758Z,15.40
2022-10-15T09:27:25.466Z,15.50
2022-10-15T09:30:03.779Z,15.50
2022-10-15T09:32:37.628Z,15.70
2022-10-15T09:35:16.405Z,15.70
2022-10-15T09:37:50.671Z,15.80
2022-10-15T09:40:40.658Z,15.90
2022-10-15T09:43:11.189Z,15.90
2022-10-15T09:45:40.414Z,15.90
2022-10-15T09:48:18.868Z,15.90
2022-10-15T09:50:56.165Z,15.90
2022-10-15T09:53:34.013Z,15.90
2022-10-15T09:56:07.910Z,16.00
2022-10-15T09:58:43.822Z,16.00
2022-10-15T10:01:21.103Z,16.10
2022-10-15T10:03:54.483Z,16.10
2022-10-15T10:06:24.334Z,16.20
2022-10-15T10:08:55.502Z,16.20
2022-10-15T10:11:25.694Z,16.30
2022-10-15T10:13:56.820Z,16.30
2022-10-15T10:16:27.240Z,16.30
2022-10-15T10:19:12.430Z,16.30
2022-10-15T10:21:42.738Z,16.30
2022-10-15T10:24:23.372Z,16.40
2022-10-15T10:26:51.308Z,16.50
2022-10-15T10:29:33.574Z,16.60
2022-10-15T10:32:12.006Z,16.60
2022-10-15T10:34:40.011Z,16.60
2022-10-15T10:37:10.073Z,16.60
2022-10-15T10:39:38.122Z,16.60
2022-10-15T10:42:08.225Z,16.70
2022-10-15T10:44:37.807Z,16.70
2022-10-15T10:47:13.347Z,16.70
2022-10-15T10:49:43.577Z,16.70
2022-10-15T10:52:30.292Z,16.70
2022-10-15T10:55:03.409Z,16.60
2022-10-15T10:57:42.134Z,16.70
2022-10-15T11:00:15.970Z,16.70
2022-10-15T11:02:50.013Z,16.70
2022-10-15T11:05:25.533Z,16.70
2022-10-15T11:07:59.865Z,16.70
2022-10-15T11:10:33.375Z,16.70
2022-10-15T11:13:18.190Z,16.70
2022-10-15T11:15:53.557Z,16.80
2022-10-15T11:18:33.751Z,16.70
2022-10-15T11:21:25.024Z,16.80
2022-10-15T11:24:04.836Z,16.80
2022-10-15T11:27:06.359Z,16.80
2022-10-15T11:29:54.696Z,16.80
2022-10-15T11:33:01.773Z,16.80
2022-10-15T11:35:59.297Z,16.90
2022-10-15T11:38:35.023Z,17.10
2022-10-15T11:41:28.996Z,17.10
2022-10-15T11:44:07.725Z,17.00
2022-10-15T11:46:45.651Z,17.10
2022-10-15T11:49:32.884Z,17.10
2022-10-15T11:52:28.338Z,17.10
2022-10-15T11:55:04.924Z,17.00
2022-10-15T11:57:35.156Z,17.00
2022-10-15T12:00:07.161Z,17.00
2022-10-15T12:02:40.787Z,16.90
2022-10-15T12:05:14.521Z,16.80
2022-10-15T12:07:45.739Z,16.80
2022-10-15T12:10:31.538Z,16.90
2022-10-15T12:13:09.569Z,16.80
2022-10-15T12:15:43.560Z,16.80
2022-10-15T12:18:21.156Z,16.80
2022-10-15T12:20:51.078Z,16.80
2022-10-15T12:23:26.892Z,16.80
2022-10-15T12:25:55.354Z,16.80
2022-10-15T12:28:33.340Z,16.70
2022-10-15T12:31:03.043Z,16.70
2022-10-15T12:33:34.787Z,16.80
2022-10-15T12:36:09.146Z,16.80
2022-10-15T12:38:40.955Z,16.80
2022-10-15T12:41:11.663Z,16.90
2022-10-15T12:43:42.657Z,16.90
2022-10-15T12:46:12.631Z,16.90
2022-10-15T12:48:43.295Z,16.90
2022-10-15T12:51:35.259Z,17.00
2022-10-15T12:54:33.582Z,17.00
2022-10-15T12:57:01.739Z,17.00
2022-10-15T12:59:32.614Z,17.10
2022-10-15T13:02:03.199Z,17.10
2022-10-15T13:04:40.765Z,17.10
2022-10-15T13:07:15.173Z,17.20
2022-10-15T13:09:44.366Z,17.20
2022-10-15T13:12:23.730Z,17.20
2022-10-15T13:14:59.090Z,17.30
2022-10-15T13:17:27.377Z,17.40
2022-10-15T13:20:00.000Z,17.30
2022-10-15T13:22:29.708Z,17.40
2022-10-15T13:24:59.234Z,17.40
2022-10-15T13:27:33.927Z,17.40
2022-10-15T13:30:03.711Z,17.40
2022-10-15T13:32:34.654Z,17.40
2022-10-15T13:35:04.734Z,17.40
2022-10-15T13:37:35.769Z,17.40
2022-10-15T13:40:08.289Z,17.40
2022-10-15T13:42:36.777Z,17.60
2022-10-15T13:45:16.238Z,17.60
2022-10-15T13:47:49.091Z,17.70
2022-10-15T13:50:23.827Z,18.10
2022-10-15T13:52:56.482Z,18.10
2022-10-15T13:55:28.329Z,18.00
2022-10-15T13:58:01.446Z,17.90
2022-10-15T14:00:32.362Z,17.80
2022-10-15T14:03:24.525Z,17.70
2022-10-15T14:05:54.117Z,17.80
2022-10-15T14:08:28.184Z,18.00
2022-10-15T14:11:00.120Z,18.00
2022-10-15T14:13:29.580Z,18.10
2022-10-15T14:16:13.534Z,18.10
2022-10-15T14:18:48.229Z,18.00
2022-10-15T14:21:19.641Z,17.90
2022-10-15T14:23:49.852Z,17.80
2022-10-15T14:26:25.142Z,17.70
2022-10-15T14:28:55.873Z,17.70
2022-10-15T14:31:32.565Z,17.70
2022-10-15T14:34:00.529Z,17.60
2022-10-15T14:36:30.343Z,17.70
2022-10-15T14:39:25.876Z,17.70
2022-10-15T14:42:10.728Z,17.70
2022-10-15T14:44:49.279Z,17.60
2022-10-15T14:47:38.945Z,17.60
2022-10-15T14:50:12.478Z,17.60
2022-10-15T14:52:45.454Z,17.50
2022-10-15T14:55:24.247Z,17.40
2022-10-15T14:57:53.713Z,17.40
2022-10-15T15:00:27.107Z,17.40
2022-10-15T15:02:57.439Z,17.40
2022-10-15T15:05:26.977Z,17.40
2022-10-15T15:07:56.798Z,17.30
2022-10-15T15:10:25.577Z,17.30
2022-10-15T15:12:57.325Z,17.30
2022-10-15T15:15:27.444Z,17.30
2022-10-15T15:18:15.550Z,17.20
2022-10-15T15:21:59.533Z,17.30
2022-10-15T15:24:27.592Z,17.20
2022-10-15T15:26:55.532Z,17.20
2022-10-15T15:29:29.237Z,17.20
2022-10-15T15:31:57.125Z,17.20
2022-10-15T15:34:25.012Z,17.20
2022-10-15T15:36:52.946Z,17.20
2022-10-15T15:39:20.893Z,17.30
2022-10-15T15:41:49.020Z,17.20
2022-10-15T15:44:16.901Z,17.20
2022-10-15T15:46:50.272Z,17.20
2022-10-15T15:49:19.168Z,17.20
2022-10-15T15:51:47.048Z,17.20
2022-10-15T15:54:14.945Z,17.10
2022-10-15T15:59:11.686Z,17.00
2022-10-15T16:01:39.674Z,17.00
2022-10-15T16:04:08.930Z,16.90
2022-10-15T16:06:36.775Z,16.90
2022-10-15T16:09:05.578Z,16.90
2022-10-15T16:11:33.933Z,16.80
2022-10-15T16:14:04.678Z,16.80
2022-10-15T16:16:35.946Z,16.80
2022-10-15T16:19:04.559Z,16.70
2022-10-15T16:21:34.140Z,16.70
2022-10-15T16:24:02.105Z,16.70
2022-10-15T16:26:30.023Z,16.60
2022-10-15T16:28:58.079Z,16.70
2022-10-15T16:31:29.495Z,16.70
2022-10-15T16:33:59.164Z,16.60
2022-10-15T16:36:27.158Z,16.60
2022-10-15T16:38:56.373Z,16.50
2022-10-15T16:41:24.330Z,16.50
2022-10-15T16:43:52.437Z,16.40
2022-10-15T16:46:21.088Z,16.40
2022-10-15T16:48:54.019Z,16.30
2022-10-15T16:51:22.638Z,16.30
2022-10-15T16:53:51.347Z,16.30
2022-10-15T16:56:23.397Z,16.30
2022-10-15T16:58:51.852Z,16.20
2022-10-15T17:01:21.416Z,16.20
2022-10-15T17:03:49.598Z,16.20
2022-10-15T17:06:20.711Z,16.10
2022-10-15T17:08:50.305Z,16.10
2022-10-15T17:11:21.845Z,16.10
2022-10-15T17:13:51.456Z,16.00
2022-10-15T17:16:21.585Z,16.00
2022-10-15T17:21:25.634Z,16.00
2022-10-15T17:23:55.288Z,16.00
2022-10-15T17:26:26.822Z,16.00
2022-10-15T17:28:55.289Z,16.00
2022-10-15T17:31:25.079Z,16.00
2022-10-15T17:33:57.659Z,16.00
2022-10-15T17:36:26.751Z,16.00
2022-10-15T17:38:57.027Z,16.00
2022-10-15T17:41:29.757Z,16.10
2022-10-15T17:43:58.671Z,16.10
2022-10-15T17:46:28.730Z,16.10
2022-10-15T17:48:57.345Z,16.10
2022-10-15T17:51:28.383Z,16.10
2022-10-15T17:53:58.794Z,16.10
2022-10-15T17:56:29.384Z,16.10
2022-10-15T17:58:58.187Z,16.20
2022-10-15T18:01:39.176Z,16.20
2022-10-15T18:04:07.917Z,16.20
2022-10-15T18:06:35.930Z,16.20
2022-10-15T18:09:03.795Z,16.30
2022-10-15T18:11:35.345Z,16.30
2022-10-15T18:14:03.316Z,16.30
2022-10-15T18:16:32.154Z,16.30
2022-10-15T18:19:00.583Z,16.30
2022-10-15T18:21:28.808Z,16.40
2022-10-15T18:24:00.496Z,16.40
2022-10-15T18:26:28.356Z,16.40
2022-10-15T18:28:57.707Z,16.40
2022-10-15T18:31:26.220Z,16.40
2022-10-15T18:33:56.327Z,16.40
2022-10-15T18:36:26.687Z,16.40
2022-10-15T18:38:55.476Z,16.40
2022-10-15T18:41:27.746Z,16.40
2022-10-15T18:43:58.983Z,16.40
2022-10-15T18:46:32.814Z,16.40
2022-10-15T18:49:01.072Z,16.40
2022-10-15T18:51:31.992Z,16.40
2022-10-15T18:54:01.175Z,16.40
2022-10-15T18:56:29.556Z,16.30
2022-10-15T18:58:59.291Z,16.30
2022-10-15T19:01:29.869Z,16.30
2022-10-15T19:03:59.953Z,16.30
2022-10-15T19:06:30.877Z,16.30
2022-10-15T19:08:59.588Z,16.40
2022-10-15T19:11:31.803Z,16.40
2022-10-15T19:14:02.013Z,16.40
2022-10-15T19:16:29.978Z,16.40
2022-10-15T19:19:04.406Z,16.40
2022-10-15T19:21:32.393Z,16.40
2022-10-15T19:24:01.240Z,16.40
2022-10-15T19:26:29.724Z,16.40
2022-10-15T19:28:58.109Z,16.50
2022-10-15T19:31:29.739Z,16.40
2022-10-15T19:33:58.914Z,16.40
2022-10-15T19:36:28.976Z,16.40
2022-10-15T19:38:57.432Z,16.40
2022-10-15T19:41:25.864Z,16.30
2022-10-15T19:43:54.547Z,16.30
2022-10-15T19:46:22.922Z,16.30
2022-10-15T19:48:52.160Z,16.30
2022-10-15T19:51:22.601Z,16.20
2022-10-15T19:53:52.214Z,16.20
2022-10-15T19:56:20.109Z,16.20
2022-10-15T19:58:48.026Z,16.20
2022-10-15T20:01:16.187Z,16.20
2022-10-15T20:03:44.113Z,16.20
2022-10-15T20:06:13.350Z,16.20
2022-10-15T20:08:41.269Z,16.20
2022-10-15T20:11:10.428Z,16.10
2022-10-15T20:13:38.362Z,16.20
2022-10-15T20:16:08.147Z,16.10
2022-10-15T20:18:36.861Z,16.20
2022-10-15T20:21:09.015Z,16.10
2022-10-15T20:23:39.351Z,16.10
2022-10-15T20:26:09.366Z,16.10
2022-10-15T20:28:37.629Z,16.00
2022-10-15T20:31:07.407Z,16.00
2022-10-15T20:33:35.614Z,16.00
2022-10-15T20:36:05.037Z,16.00
2022-10-15T20:38:33.822Z,16.00
2022-10-15T20:41:07.373Z,16.00
2022-10-15T20:43:35.277Z,16.00
2022-10-15T20:46:04.695Z,15.90
2022-10-15T20:48:33.815Z,15.90
2022-10-15T20:51:02.320Z,15.90
2022-10-15T20:53:31.151Z,15.90
2022-10-15T20:56:00.147Z,15.90
2022-10-15T20:58:29.900Z,15.90
2022-10-15T21:00:58.081Z,15.90
2022-10-15T21:03:26.584Z,15.90
2022-10-15T21:05:55.151Z,15.90
2022-10-15T21:08:24.248Z,15.90
2022-10-15T21:10:52.194Z,16.00
2022-10-15T21:13:20.175Z,16.00
2022-10-15T21:15:49.350Z,16.00
2022-10-15T21:18:17.205Z,16.00
2022-10-15T21:20:45.102Z,16.00
2022-10-15T21:23:13.738Z,16.00
2022-10-15T21:25:41.650Z,16.00
2022-10-15T21:28:09.539Z,16.00
2022-10-15T21:30:40.525Z,16.00
2022-10-15T21:33:09.693Z,16.00
2022-10-15T21:35:37.656Z,16.00
2022-10-15T21:38:05.518Z,16.00
2022-10-15T21:40:33.412Z,16.00
2022-10-15T21:43:01.360Z,16.00
2022-10-15T21:45:29.210Z,16.00
2022-10-15T21:47:57.087Z,16.00
2022-10-15T21:50:26.282Z,16.00
2022-10-15T21:52:54.193Z,16.00
2022-10-15T21:55:22.120Z,16.00
2022-10-15T21:57:50.247Z,16.00
2022-10-15T22:00:19.170Z,16.00
2022-10-15T22:02:50.490Z,16.00
2022-10-15T22:05:18.440Z,16.00
2022-10-15T22:07:47.615Z,16.00
2022-10-15T22:10:15.651Z,16.00
2022-10-15T22:12:43.798Z,16.00
2022-10-15T22:15:11.870Z,16.00
2022-10-15T22:17:39.697Z,16.00
2022-10-15T22:20:08.576Z,16.00
2022-10-15T22:22:36.474Z,16.00
2022-10-15T22:25:06.169Z,16.00
2022-10-15T22:27:34.063Z,16.00
2022-10-15T22:30:01.990Z,16.10
2022-10-15T22:32:29.886Z,16.00
2022-10-15T22:34:57.747Z,16.00
2022-10-15T22:37:25.606Z,16.00
2022-10-15T22:39:53.470Z,16.00
2022-10-15T22:42:22.893Z,16.00
2022-10-15T22:44:50.913Z,16.00
2022-10-15T22:47:18.788Z,16.00
2022-10-15T22:49:46.621Z,16.00
2022-10-15T22:52:14.479Z,16.00
2022-10-15T22:54:42.322Z,16.00
2022-10-15T22:57:10.192Z,16.00
2022-10-15T22:59:41.762Z,16.00
2022-10-15T23:02:09.618Z,16.00
2022-10-15T23:04:37.521Z,16.00
2022-10-15T23:07:05.474Z,16.00
2022-10-15T23:09:33.441Z,16.00
2022-10-15T23:12:01.262Z,16.00
2022-10-15T23:14:29.125Z,16.00
2022-10-15T23:16:58.314Z,16.00
2022-10-15T23:19:26.244Z,16.00
2022-10-15T23:21:56.409Z,15.90
2022-10-15T23:24:26.603Z,16.00
2022-10-15T23:26:55.100Z,15.90
2022-10-15T23:29:25.156Z,15.90
2022-10-15T23:31:53.631Z,16.00
2022-10-15T23:34:25.267Z,15.90
2022-10-15T23:36:53.614Z,15.90
2022-10-15T23:39:23.810Z,15.90
2022-10-15T23:41:52.273Z,15.90
2022-10-15T23:44:20.941Z,15.90
2022-10-15T23:46:48.891Z,15.90
2022-10-15T23:49:17.767Z,15.90
2022-10-15T23:51:47.036Z,15.90
2022-10-15T23:54:17.722Z,15.80
2022-10-15T23:56:45.929Z,15.80
2022-10-15T23:59:13.785Z,15.90
